sensor_id;sensor_type;location;lat;lon;timestamp;pressure;altitude;pressure_sealevel;temperature
32039;BMP280;18549;42.286;22.688;2024-02-23T00:02:07;95450.72;;;9.30
32039;BMP280;18549;42.286;22.688;2024-02-23T00:04:35;95446.47;;;9.20
32039;BMP280;18549;42.286;22.688;2024-02-23T00:07:05;95450.94;;;9.27
32039;BMP280;18549;42.286;22.688;2024-02-23T00:09:33;95444.63;;;9.36
32039;BMP280;18549;42.286;22.688;2024-02-23T00:12:03;95439.41;;;9.40
32039;BMP280;18549;42.286;22.688;2024-02-23T00:14:30;95448.41;;;9.41
32039;BMP280;18549;42.286;22.688;2024-02-23T00:16:58;95445.22;;;9.39
32039;BMP280;18549;42.286;22.688;2024-02-23T00:19:30;95428.63;;;9.41
32039;BMP280;18549;42.286;22.688;2024-02-23T00:21:58;95442.75;;;9.39
32039;BMP280;18549;42.286;22.688;2024-02-23T00:24:26;95439.34;;;9.28
32039;BMP280;18549;42.286;22.688;2024-02-23T00:26:54;95430.94;;;9.30
32039;BMP280;18549;42.286;22.688;2024-02-23T00:29:22;95424.94;;;9.34
32039;BMP280;18549;42.286;22.688;2024-02-23T00:31:50;95424.56;;;9.40
32039;BMP280;18549;42.286;22.688;2024-02-23T00:34:17;95418.59;;;9.30
32039;BMP280;18549;42.286;22.688;2024-02-23T00:39:26;95416.44;;;9.38
32039;BMP280;18549;42.286;22.688;2024-02-23T00:41:54;95415.34;;;9.42
32039;BMP280;18549;42.286;22.688;2024-02-23T00:44:22;95418.66;;;9.43
32039;BMP280;18549;42.286;22.688;2024-02-23T00:46:49;95412.72;;;9.45
32039;BMP280;18549;42.286;22.688;2024-02-23T00:49:16;95410.88;;;9.35
32039;BMP280;18549;42.286;22.688;2024-02-23T00:51:44;95411.50;;;9.38
32039;BMP280;18549;42.286;22.688;2024-02-23T00:54:12;95405.75;;;9.38
32039;BMP280;18549;42.286;22.688;2024-02-23T00:56:42;95404.94;;;9.37
32039;BMP280;18549;42.286;22.688;2024-02-23T00:59:11;95405.44;;;9.30
32039;BMP280;18549;42.286;22.688;2024-02-23T01:01:39;95399.41;;;9.34
32039;BMP280;18549;42.286;22.688;2024-02-23T01:04:07;95404.09;;;9.38
32039;BMP280;18549;42.286;22.688;2024-02-23T01:06:36;95405.66;;;9.39
32039;BMP280;18549;42.286;22.688;2024-02-23T01:09:02;95408.88;;;9.27
32039;BMP280;18549;42.286;22.688;2024-02-23T01:11:31;95394.06;;;9.27
32039;BMP280;18549;42.286;22.688;2024-02-23T01:14:02;95393.78;;;9.32
32039;BMP280;18549;42.286;22.688;2024-02-23T01:16:29;95394.34;;;9.35
32039;BMP280;18549;42.286;22.688;2024-02-23T01:18:57;95396.94;;;9.34
32039;BMP280;18549;42.286;22.688;2024-02-23T01:21:25;95396.84;;;9.35
32039;BMP280;18549;42.286;22.688;2024-02-23T01:23:53;95400.09;;;9.10
32039;BMP280;18549;42.286;22.688;2024-02-23T01:26:25;95402.97;;;9.04
32039;BMP280;18549;42.286;22.688;2024-02-23T01:28:55;95389.03;;;9.15
32039;BMP280;18549;42.286;22.688;2024-02-23T01:31:25;95384.81;;;9.17
32039;BMP280;18549;42.286;22.688;2024-02-23T01:33:53;95374.41;;;9.12
32039;BMP280;18549;42.286;22.688;2024-02-23T01:36:19;95380.66;;;9.18
32039;BMP280;18549;42.286;22.688;2024-02-23T01:38:47;95363.59;;;9.27
32039;BMP280;18549;42.286;22.688;2024-02-23T01:41:15;95369.31;;;9.27
32039;BMP280;18549;42.286;22.688;2024-02-23T01:43:43;95376.75;;;9.27
32039;BMP280;18549;42.286;22.688;2024-02-23T01:46:10;95367.63;;;9.28
32039;BMP280;18549;42.286;22.688;2024-02-23T01:48:44;95374.97;;;9.29
32039;BMP280;18549;42.286;22.688;2024-02-23T01:51:13;95362.59;;;9.29
32039;BMP280;18549;42.286;22.688;2024-02-23T01:53:41;95357.75;;;9.28
32039;BMP280;18549;42.286;22.688;2024-02-23T01:56:09;95358.63;;;9.27
32039;BMP280;18549;42.286;22.688;2024-02-23T01:58:37;95367.56;;;9.29
32039;BMP280;18549;42.286;22.688;2024-02-23T02:01:05;95369.47;;;9.12
32039;BMP280;18549;42.286;22.688;2024-02-23T02:03:33;95360.28;;;9.14
32039;BMP280;18549;42.286;22.688;2024-02-23T02:06:03;95354.34;;;9.17
32039;BMP280;18549;42.286;22.688;2024-02-23T02:08:30;95350.31;;;9.16
32039;BMP280;18549;42.286;22.688;2024-02-23T02:10:59;95357.53;;;9.19
32039;BMP280;18549;42.286;22.688;2024-02-23T02:13:28;95356.81;;;9.17
32039;BMP280;18549;42.286;22.688;2024-02-23T02:15:56;95343.53;;;9.05
32039;BMP280;18549;42.286;22.688;2024-02-23T02:18:24;95340.78;;;9.10
32039;BMP280;18549;42.286;22.688;2024-02-23T02:20:55;95352.25;;;9.11
32039;BMP280;18549;42.286;22.688;2024-02-23T02:23:26;95346.69;;;9.07
32039;BMP280;18549;42.286;22.688;2024-02-23T02:25:53;95350.00;;;8.94
32039;BMP280;18549;42.286;22.688;2024-02-23T02:28:22;95349.50;;;8.89
32039;BMP280;18549;42.286;22.688;2024-02-23T02:30:49;95355.50;;;8.85
32039;BMP280;18549;42.286;22.688;2024-02-23T02:33:16;95348.72;;;8.88
32039;BMP280;18549;42.286;22.688;2024-02-23T02:35:43;95356.63;;;8.93
32039;BMP280;18549;42.286;22.688;2024-02-23T02:38:11;95358.84;;;8.98
32039;BMP280;18549;42.286;22.688;2024-02-23T02:40:40;95353.56;;;8.90
32039;BMP280;18549;42.286;22.688;2024-02-23T02:43:10;95352.75;;;8.89
32039;BMP280;18549;42.286;22.688;2024-02-23T02:45:39;95350.41;;;8.88
32039;BMP280;18549;42.286;22.688;2024-02-23T02:48:07;95345.47;;;8.88
32039;BMP280;18549;42.286;22.688;2024-02-23T02:50:35;95350.13;;;8.92
32039;BMP280;18549;42.286;22.688;2024-02-23T02:53:04;95347.38;;;8.97
32039;BMP280;18549;42.286;22.688;2024-02-23T02:55:31;95348.59;;;8.90
32039;BMP280;18549;42.286;22.688;2024-02-23T02:57:59;95354.69;;;8.72
32039;BMP280;18549;42.286;22.688;2024-02-23T03:00:28;95349.97;;;8.82
32039;BMP280;18549;42.286;22.688;2024-02-23T03:02:57;95354.81;;;8.83
32039;BMP280;18549;42.286;22.688;2024-02-23T03:05:25;95345.63;;;8.85
32039;BMP280;18549;42.286;22.688;2024-02-23T03:07:54;95340.69;;;8.85
32039;BMP280;18549;42.286;22.688;2024-02-23T03:10:23;95341.50;;;8.86
32039;BMP280;18549;42.286;22.688;2024-02-23T03:12:51;95353.94;;;8.84
32039;BMP280;18549;42.286;22.688;2024-02-23T03:15:21;95367.91;;;8.71
32039;BMP280;18549;42.286;22.688;2024-02-23T03:17:47;95360.94;;;8.64
32039;BMP280;18549;42.286;22.688;2024-02-23T03:20:18;95361.75;;;8.64
32039;BMP280;18549;42.286;22.688;2024-02-23T03:22:47;95362.81;;;8.60
32039;BMP280;18549;42.286;22.688;2024-02-23T03:25:15;95363.34;;;8.65
32039;BMP280;18549;42.286;22.688;2024-02-23T03:27:43;95360.88;;;8.65
32039;BMP280;18549;42.286;22.688;2024-02-23T03:30:10;95366.69;;;8.64
32039;BMP280;18549;42.286;22.688;2024-02-23T03:32:41;95351.69;;;8.67
32039;BMP280;18549;42.286;22.688;2024-02-23T03:35:08;95363.94;;;8.69
32039;BMP280;18549;42.286;22.688;2024-02-23T03:37:35;95368.28;;;8.65
32039;BMP280;18549;42.286;22.688;2024-02-23T03:40:05;95358.28;;;8.67
32039;BMP280;18549;42.286;22.688;2024-02-23T03:42:33;95362.38;;;8.68
32039;BMP280;18549;42.286;22.688;2024-02-23T03:45:00;95368.09;;;8.68
32039;BMP280;18549;42.286;22.688;2024-02-23T03:47:29;95371.62;;;8.64
32039;BMP280;18549;42.286;22.688;2024-02-23T03:49:58;95369.06;;;8.66
32039;BMP280;18549;42.286;22.688;2024-02-23T03:52:26;95367.47;;;8.65
32039;BMP280;18549;42.286;22.688;2024-02-23T03:54:53;95360.34;;;8.60
32039;BMP280;18549;42.286;22.688;2024-02-23T03:57:20;95365.28;;;8.60
32039;BMP280;18549;42.286;22.688;2024-02-23T03:59:55;95365.28;;;8.60
32039;BMP280;18549;42.286;22.688;2024-02-23T04:02:23;95360.34;;;8.60
32039;BMP280;18549;42.286;22.688;2024-02-23T04:04:51;95361.94;;;8.61
32039;BMP280;18549;42.286;22.688;2024-02-23T04:07:20;95365.28;;;8.60
32039;BMP280;18549;42.286;22.688;2024-02-23T04:09:50;95365.28;;;8.60
32039;BMP280;18549;42.286;22.688;2024-02-23T04:12:20;95372.00;;;8.58
32039;BMP280;18549;42.286;22.688;2024-02-23T04:14:49;95370.41;;;8.57
32039;BMP280;18549;42.286;22.688;2024-02-23T04:17:17;95361.31;;;8.58
32039;BMP280;18549;42.286;22.688;2024-02-23T04:19:45;95363.00;;;8.57
32039;BMP280;18549;42.286;22.688;2024-02-23T04:22:13;95374.81;;;8.53
32039;BMP280;18549;42.286;22.688;2024-02-23T04:24:43;95370.94;;;8.49
32039;BMP280;18549;42.286;22.688;2024-02-23T04:27:09;95372.69;;;8.47
32039;BMP280;18549;42.286;22.688;2024-02-23T04:29:37;95377.50;;;8.36
32039;BMP280;18549;42.286;22.688;2024-02-23T04:32:06;95376.41;;;8.26
32039;BMP280;18549;42.286;22.688;2024-02-23T04:34:34;95378.56;;;8.32
32039;BMP280;18549;42.286;22.688;2024-02-23T04:37:01;95377.94;;;8.28
32039;BMP280;18549;42.286;22.688;2024-02-23T04:39:30;95376.16;;;8.30
32039;BMP280;18549;42.286;22.688;2024-02-23T04:41:59;95372.38;;;8.25
32039;BMP280;18549;42.286;22.688;2024-02-23T04:44:28;95370.81;;;8.24
32039;BMP280;18549;42.286;22.688;2024-02-23T04:46:56;95378.72;;;8.29
32039;BMP280;18549;42.286;22.688;2024-02-23T04:49:23;95377.94;;;8.28
32039;BMP280;18549;42.286;22.688;2024-02-23T04:51:51;95377.31;;;8.25
32039;BMP280;18549;42.286;22.688;2024-02-23T04:54:19;95372.66;;;8.21
32039;BMP280;18549;42.286;22.688;2024-02-23T04:56:46;95365.56;;;8.15
32039;BMP280;18549;42.286;22.688;2024-02-23T04:59:16;95368.59;;;8.20
32039;BMP280;18549;42.286;22.688;2024-02-23T05:01:44;95375.19;;;8.19
32039;BMP280;18549;42.286;22.688;2024-02-23T05:04:10;95369.38;;;8.20
32039;BMP280;18549;42.286;22.688;2024-02-23T05:06:37;95369.38;;;8.20
32039;BMP280;18549;42.286;22.688;2024-02-23T05:09:04;95373.53;;;8.20
32039;BMP280;18549;42.286;22.688;2024-02-23T05:11:34;95376.09;;;8.18
32039;BMP280;18549;42.286;22.688;2024-02-23T05:14:01;95382.00;;;8.16
32039;BMP280;18549;42.286;22.688;2024-02-23T05:16:30;95383.75;;;8.14
32039;BMP280;18549;42.286;22.688;2024-02-23T05:18:58;95387.91;;;8.13
32039;BMP280;18549;42.286;22.688;2024-02-23T05:21:26;95388.88;;;8.11
32039;BMP280;18549;42.286;22.688;2024-02-23T05:23:54;95388.38;;;8.04
32039;BMP280;18549;42.286;22.688;2024-02-23T05:26:22;95397.56;;;8.02
32039;BMP280;18549;42.286;22.688;2024-02-23T05:28:49;95390.78;;;8.06
32039;BMP280;18549;42.286;22.688;2024-02-23T05:31:17;95397.09;;;7.96
32039;BMP280;18549;42.286;22.688;2024-02-23T05:33:47;95395.59;;;7.93
32039;BMP280;18549;42.286;22.688;2024-02-23T05:36:14;95386.00;;;8.03
32039;BMP280;18549;42.286;22.688;2024-02-23T05:38:41;95401.44;;;8.06
32039;BMP280;18549;42.286;22.688;2024-02-23T05:41:12;95394.78;;;8.08
32039;BMP280;18549;42.286;22.688;2024-02-23T05:43:40;95394.59;;;8.11
32039;BMP280;18549;42.286;22.688;2024-02-23T05:46:08;95398.56;;;8.14
32039;BMP280;18549;42.286;22.688;2024-02-23T05:48:36;95405.06;;;8.15
32039;BMP280;18549;42.286;22.688;2024-02-23T05:51:08;95410.91;;;8.14
32039;BMP280;18549;42.286;22.688;2024-02-23T05:53:36;95407.00;;;8.10
32039;BMP280;18549;42.286;22.688;2024-02-23T05:56:04;95404.22;;;8.16
32039;BMP280;18549;42.286;22.688;2024-02-23T05:58:31;95410.81;;;8.15
32039;BMP280;18549;42.286;22.688;2024-02-23T06:00:59;95410.66;;;8.18
32039;BMP280;18549;42.286;22.688;2024-02-23T06:03:27;95418.94;;;8.17
32039;BMP280;18549;42.286;22.688;2024-02-23T06:05:55;95416.47;;;8.17
32039;BMP280;18549;42.286;22.688;2024-02-23T06:08:23;95421.22;;;8.20
32039;BMP280;18549;42.286;22.688;2024-02-23T06:10:53;95419.63;;;8.19
32039;BMP280;18549;42.286;22.688;2024-02-23T06:13:25;95419.91;;;8.28
32039;BMP280;18549;42.286;22.688;2024-02-23T06:15:52;95413.13;;;8.32
32039;BMP280;18549;42.286;22.688;2024-02-23T06:18:22;95417.97;;;8.33
32039;BMP280;18549;42.286;22.688;2024-02-23T06:20:50;95414.53;;;8.36
32039;BMP280;18549;42.286;22.688;2024-02-23T06:23:28;95418.25;;;8.43
32039;BMP280;18549;42.286;22.688;2024-02-23T06:25:55;95423.06;;;8.44
32039;BMP280;18549;42.286;22.688;2024-02-23T06:28:24;95413.63;;;8.51
32039;BMP280;18549;42.286;22.688;2024-02-23T06:30:52;95419.47;;;8.50
32039;BMP280;18549;42.286;22.688;2024-02-23T06:33:19;95423.25;;;8.55
32039;BMP280;18549;42.286;22.688;2024-02-23T06:35:45;95433.06;;;8.56
32039;BMP280;18549;42.286;22.688;2024-02-23T06:38:15;95431.28;;;8.58
32039;BMP280;18549;42.286;22.688;2024-02-23T06:40:44;95426.50;;;8.69
32039;BMP280;18549;42.286;22.688;2024-02-23T06:43:12;95420.50;;;8.73
32039;BMP280;18549;42.286;22.688;2024-02-23T06:45:41;95424.00;;;8.83
32039;BMP280;18549;42.286;22.688;2024-02-23T06:48:11;95417.41;;;8.84
32039;BMP280;18549;42.286;22.688;2024-02-23T06:50:39;95425.22;;;8.90
32039;BMP280;18549;42.286;22.688;2024-02-23T06:53:06;95423.19;;;8.96
32039;BMP280;18549;42.286;22.688;2024-02-23T06:55:34;95423.53;;;9.04
32039;BMP280;18549;42.286;22.688;2024-02-23T06:58:11;95423.97;;;9.11
32039;BMP280;18549;42.286;22.688;2024-02-23T07:00:39;95413.25;;;9.10
32039;BMP280;18549;42.286;22.688;2024-02-23T07:03:06;95424.09;;;9.21
32039;BMP280;18549;42.286;22.688;2024-02-23T07:05:34;95410.19;;;9.33
32039;BMP280;18549;42.286;22.688;2024-02-23T07:08:03;95419.84;;;9.50
32039;BMP280;18549;42.286;22.688;2024-02-23T07:10:30;95417.47;;;9.48
32039;BMP280;18549;42.286;22.688;2024-02-23T07:12:58;95412.22;;;9.53
32039;BMP280;18549;42.286;22.688;2024-02-23T07:15:28;95404.31;;;9.60
32039;BMP280;18549;42.286;22.688;2024-02-23T07:17:56;95405.72;;;9.64
32039;BMP280;18549;42.286;22.688;2024-02-23T07:20:23;95404.66;;;9.68
32039;BMP280;18549;42.286;22.688;2024-02-23T07:22:50;95404.44;;;9.71
32039;BMP280;18549;42.286;22.688;2024-02-23T07:25:18;95409.91;;;9.76
32039;BMP280;18549;42.286;22.688;2024-02-23T07:27:47;95406.22;;;9.81
32039;BMP280;18549;42.286;22.688;2024-02-23T07:30:15;95404.28;;;9.86
32039;BMP280;18549;42.286;22.688;2024-02-23T07:32:46;95409.75;;;9.91
32039;BMP280;18549;42.286;22.688;2024-02-23T07:35:13;95410.34;;;9.94
32039;BMP280;18549;42.286;22.688;2024-02-23T07:37:41;95404.81;;;9.91
32039;BMP280;18549;42.286;22.688;2024-02-23T07:40:10;95403.28;;;9.88
32039;BMP280;18549;42.286;22.688;2024-02-23T07:42:40;95403.81;;;9.93
32039;BMP280;18549;42.286;22.688;2024-02-23T07:45:08;95399.38;;;9.98
32039;BMP280;18549;42.286;22.688;2024-02-23T07:47:37;95392.63;;;10.00
32039;BMP280;18549;42.286;22.688;2024-02-23T07:50:08;95395.22;;;10.11
32039;BMP280;18549;42.286;22.688;2024-02-23T07:52:36;95396.69;;;10.26
32039;BMP280;18549;42.286;22.688;2024-02-23T07:55:06;95400.13;;;10.36
32039;BMP280;18549;42.286;22.688;2024-02-23T07:57:34;95379.12;;;10.41
32039;BMP280;18549;42.286;22.688;2024-02-23T08:00:03;95373.75;;;10.47
32039;BMP280;18549;42.286;22.688;2024-02-23T08:02:32;95382.06;;;10.58
32039;BMP280;18549;42.286;22.688;2024-02-23T08:05:02;95387.50;;;10.63
32039;BMP280;18549;42.286;22.688;2024-02-23T08:07:30;95376.41;;;10.69
32039;BMP280;18549;42.286;22.688;2024-02-23T08:09:57;95390.37;;;10.70
32039;BMP280;18549;42.286;22.688;2024-02-23T08:12:28;95396.50;;;10.77
32039;BMP280;18549;42.286;22.688;2024-02-23T08:14:56;95381.63;;;10.89
32039;BMP280;18549;42.286;22.688;2024-02-23T08:17:25;95383.56;;;10.96
32039;BMP280;18549;42.286;22.688;2024-02-23T08:19:53;95384.63;;;11.05
32039;BMP280;18549;42.286;22.688;2024-02-23T08:22:23;95382.50;;;11.11
32039;BMP280;18549;42.286;22.688;2024-02-23T08:24:52;95373.75;;;11.18
32039;BMP280;18549;42.286;22.688;2024-02-23T08:27:20;95376.28;;;11.29
32039;BMP280;18549;42.286;22.688;2024-02-23T08:29:48;95378.03;;;11.39
32039;BMP280;18549;42.286;22.688;2024-02-23T08:32:15;95372.16;;;11.40
32039;BMP280;18549;42.286;22.688;2024-02-23T08:34:46;95376.81;;;11.45
32039;BMP280;18549;42.286;22.688;2024-02-23T08:37:13;95371.12;;;11.55
32039;BMP280;18549;42.286;22.688;2024-02-23T08:39:41;95366.84;;;11.68
32039;BMP280;18549;42.286;22.688;2024-02-23T08:42:10;95361.00;;;11.80
32039;BMP280;18549;42.286;22.688;2024-02-23T08:44:39;95367.37;;;11.94
32039;BMP280;18549;42.286;22.688;2024-02-23T08:47:06;95371.12;;;12.11
32039;BMP280;18549;42.286;22.688;2024-02-23T08:49:34;95371.81;;;12.23
32039;BMP280;18549;42.286;22.688;2024-02-23T08:52:02;95357.72;;;12.35
32039;BMP280;18549;42.286;22.688;2024-02-23T08:54:30;95357.69;;;12.46
32039;BMP280;18549;42.286;22.688;2024-02-23T08:56:57;95366.50;;;12.50
32039;BMP280;18549;42.286;22.688;2024-02-23T08:59:33;95367.19;;;12.52
32039;BMP280;18549;42.286;22.688;2024-02-23T09:01:59;95353.25;;;12.71
32039;BMP280;18549;42.286;22.688;2024-02-23T09:04:26;95346.25;;;12.86
32039;BMP280;18549;42.286;22.688;2024-02-23T09:06:53;95348.88;;;12.85
32039;BMP280;18549;42.286;22.688;2024-02-23T09:09:21;95351.31;;;12.96
32039;BMP280;18549;42.286;22.688;2024-02-23T09:11:49;95337.34;;;13.15
32039;BMP280;18549;42.286;22.688;2024-02-23T09:14:15;95341.12;;;13.30
32039;BMP280;18549;42.286;22.688;2024-02-23T09:16:47;95343.94;;;13.36
32039;BMP280;18549;42.286;22.688;2024-02-23T09:19:16;95337.03;;;13.40
32039;BMP280;18549;42.286;22.688;2024-02-23T09:21:47;95337.16;;;13.58
32039;BMP280;18549;42.286;22.688;2024-02-23T09:24:15;95326.53;;;13.56
32039;BMP280;18549;42.286;22.688;2024-02-23T09:26:46;95324.34;;;13.63
32039;BMP280;18549;42.286;22.688;2024-02-23T09:29:14;95329.09;;;13.66
32039;BMP280;18549;42.286;22.688;2024-02-23T09:31:44;95325.94;;;13.64
32039;BMP280;18549;42.286;22.688;2024-02-23T09:34:15;95325.44;;;13.70
32039;BMP280;18549;42.286;22.688;2024-02-23T09:36:44;95321.25;;;13.70
32039;BMP280;18549;42.286;22.688;2024-02-23T09:39:11;95324.09;;;13.66
32039;BMP280;18549;42.286;22.688;2024-02-23T09:41:39;95315.06;;;13.65
32039;BMP280;18549;42.286;22.688;2024-02-23T09:44:08;95317.19;;;13.49
32039;BMP280;18549;42.286;22.688;2024-02-23T09:46:36;95313.72;;;13.41
32039;BMP280;18549;42.286;22.688;2024-02-23T09:49:04;95316.56;;;13.36
32039;BMP280;18549;42.286;22.688;2024-02-23T09:51:35;95308.72;;;13.41
32039;BMP280;18549;42.286;22.688;2024-02-23T09:54:05;95301.06;;;13.53
32039;BMP280;18549;42.286;22.688;2024-02-23T09:56:32;95306.87;;;13.53
32039;BMP280;18549;42.286;22.688;2024-02-23T09:59:00;95302.31;;;13.58
32039;BMP280;18549;42.286;22.688;2024-02-23T10:01:30;95298.59;;;13.53
32039;BMP280;18549;42.286;22.688;2024-02-23T10:04:00;95301.91;;;13.53
32039;BMP280;18549;42.286;22.688;2024-02-23T10:06:29;95303.09;;;13.59
32039;BMP280;18549;42.286;22.688;2024-02-23T10:08:59;95306.09;;;13.83
32039;BMP280;18549;42.286;22.688;2024-02-23T10:11:30;95295.16;;;13.94
32039;BMP280;18549;42.286;22.688;2024-02-23T10:13:57;95288.03;;;14.10
32039;BMP280;18549;42.286;22.688;2024-02-23T10:16:25;95293.06;;;14.19
32039;BMP280;18549;42.286;22.688;2024-02-23T10:18:53;95297.56;;;14.25
32039;BMP280;18549;42.286;22.688;2024-02-23T10:21:22;95289.84;;;14.38
32039;BMP280;18549;42.286;22.688;2024-02-23T10:23:50;95285.03;;;14.46
32039;BMP280;18549;42.286;22.688;2024-02-23T10:26:20;95285.34;;;14.71
32039;BMP280;18549;42.286;22.688;2024-02-23T10:28:51;95275.09;;;14.64
32039;BMP280;18549;42.286;22.688;2024-02-23T10:31:19;95276.78;;;14.54
32039;BMP280;18549;42.286;22.688;2024-02-23T10:33:50;95280.56;;;14.49
32039;BMP280;18549;42.286;22.688;2024-02-23T10:36:18;95274.41;;;14.53
32039;BMP280;18549;42.286;22.688;2024-02-23T10:38:52;95266.66;;;14.56
32039;BMP280;18549;42.286;22.688;2024-02-23T10:41:26;95265.38;;;14.61
32039;BMP280;18549;42.286;22.688;2024-02-23T10:43:55;95269.97;;;14.56
32039;BMP280;18549;42.286;22.688;2024-02-23T10:46:24;95259.75;;;14.78
32039;BMP280;18549;42.286;22.688;2024-02-23T10:48:54;95245.84;;;14.85
32039;BMP280;18549;42.286;22.688;2024-02-23T10:51:24;95258.22;;;15.15
32039;BMP280;18549;42.286;22.688;2024-02-23T10:53:52;95245.59;;;15.25
32039;BMP280;18549;42.286;22.688;2024-02-23T10:56:19;95239.31;;;15.12
32039;BMP280;18549;42.286;22.688;2024-02-23T10:58:50;95249.81;;;15.16
32039;BMP280;18549;42.286;22.688;2024-02-23T11:01:21;95241.84;;;15.67
32039;BMP280;18549;42.286;22.688;2024-02-23T11:03:48;95238.56;;;16.02
32039;BMP280;18549;42.286;22.688;2024-02-23T11:06:17;95218.78;;;16.09
32039;BMP280;18549;42.286;22.688;2024-02-23T11:08:47;95225.59;;;15.89
32039;BMP280;18549;42.286;22.688;2024-02-23T11:11:16;95220.06;;;16.22
32039;BMP280;18549;42.286;22.688;2024-02-23T11:13:44;95220.88;;;16.13
32039;BMP280;18549;42.286;22.688;2024-02-23T11:16:22;95210.78;;;16.05
32039;BMP280;18549;42.286;22.688;2024-02-23T11:18:49;95211.44;;;16.07
32039;BMP280;18549;42.286;22.688;2024-02-23T11:21:17;95212.91;;;16.53
32039;BMP280;18549;42.286;22.688;2024-02-23T11:23:48;95205.84;;;17.01
32039;BMP280;18549;42.286;22.688;2024-02-23T11:26:17;95208.69;;;17.40
32039;BMP280;18549;42.286;22.688;2024-02-23T11:28:48;95201.91;;;17.58
32039;BMP280;18549;42.286;22.688;2024-02-23T11:31:19;95204.66;;;17.80
32039;BMP280;18549;42.286;22.688;2024-02-23T11:33:49;95201.56;;;17.78
32039;BMP280;18549;42.286;22.688;2024-02-23T11:36:22;95191.66;;;17.77
32039;BMP280;18549;42.286;22.688;2024-02-23T11:38:57;95177.94;;;17.88
32039;BMP280;18549;42.286;22.688;2024-02-23T11:41:25;95176.84;;;17.91
32039;BMP280;18549;42.286;22.688;2024-02-23T11:43:53;95182.00;;;18.22
32039;BMP280;18549;42.286;22.688;2024-02-23T11:46:24;95177.81;;;18.31
32039;BMP280;18549;42.286;22.688;2024-02-23T11:48:52;95183.59;;;18.31
32039;BMP280;18549;42.286;22.688;2024-02-23T11:51:19;95182.88;;;18.54
32039;BMP280;18549;42.286;22.688;2024-02-23T11:53:55;95172.06;;;18.78
32039;BMP280;18549;42.286;22.688;2024-02-23T11:56:23;95168.00;;;18.84
32039;BMP280;18549;42.286;22.688;2024-02-23T11:58:50;95178.81;;;18.85
32039;BMP280;18549;42.286;22.688;2024-02-23T12:01:37;95175.56;;;19.16
32039;BMP280;18549;42.286;22.688;2024-02-23T12:04:05;95166.31;;;19.09
32039;BMP280;18549;42.286;22.688;2024-02-23T12:06:32;95180.72;;;18.91
32039;BMP280;18549;42.286;22.688;2024-02-23T12:09:03;95180.38;;;18.70
32039;BMP280;18549;42.286;22.688;2024-02-23T12:11:30;95178.81;;;18.77
32039;BMP280;18549;42.286;22.688;2024-02-23T12:14:02;95167.56;;;19.13
32039;BMP280;18549;42.286;22.688;2024-02-23T12:16:33;95163.59;;;19.42
32039;BMP280;18549;42.286;22.688;2024-02-23T12:19:03;95153.69;;;19.48
32039;BMP280;18549;42.286;22.688;2024-02-23T12:21:34;95145.78;;;19.67
32039;BMP280;18549;42.286;22.688;2024-02-23T12:24:04;95157.69;;;19.88
32039;BMP280;18549;42.286;22.688;2024-02-23T12:26:33;95147.56;;;20.04
32039;BMP280;18549;42.286;22.688;2024-02-23T12:29:00;95150.78;;;19.90
32039;BMP280;18549;42.286;22.688;2024-02-23T12:31:34;95152.53;;;19.66
32039;BMP280;18549;42.286;22.688;2024-02-23T12:34:02;95157.34;;;19.22
32039;BMP280;18549;42.286;22.688;2024-02-23T12:36:29;95155.63;;;19.22
32039;BMP280;18549;42.286;22.688;2024-02-23T12:38:57;95153.75;;;19.24
32039;BMP280;18549;42.286;22.688;2024-02-23T12:41:25;95146.19;;;19.32
32039;BMP280;18549;42.286;22.688;2024-02-23T12:43:53;95150.59;;;19.22
32039;BMP280;18549;42.286;22.688;2024-02-23T12:46:20;95143.72;;;18.93
32039;BMP280;18549;42.286;22.688;2024-02-23T12:48:50;95151.34;;;18.60
32039;BMP280;18549;42.286;22.688;2024-02-23T12:51:25;95143.63;;;18.38
32039;BMP280;18549;42.286;22.688;2024-02-23T12:53:53;95146.37;;;18.11
32039;BMP280;18549;42.286;22.688;2024-02-23T12:56:21;95140.66;;;17.93
32039;BMP280;18549;42.286;22.688;2024-02-23T12:58:49;95150.16;;;17.82
32039;BMP280;18549;42.286;22.688;2024-02-23T13:01:15;95153.69;;;17.64
32039;BMP280;18549;42.286;22.688;2024-02-23T13:03:45;95157.03;;;17.47
32039;BMP280;18549;42.286;22.688;2024-02-23T13:06:13;95155.88;;;17.34
32039;BMP280;18549;42.286;22.688;2024-02-23T13:08:42;95157.50;;;17.17
32039;BMP280;18549;42.286;22.688;2024-02-23T13:11:13;95170.63;;;17.02
32039;BMP280;18549;42.286;22.688;2024-02-23T13:13:41;95165.94;;;16.99
32039;BMP280;18549;42.286;22.688;2024-02-23T13:16:10;95162.78;;;16.97
32039;BMP280;18549;42.286;22.688;2024-02-23T13:18:40;95151.03;;;16.98
32039;BMP280;18549;42.286;22.688;2024-02-23T13:21:12;95151.03;;;16.98
32039;BMP280;18549;42.286;22.688;2024-02-23T13:23:38;95152.63;;;16.99
32039;BMP280;18549;42.286;22.688;2024-02-23T13:26:10;95153.13;;;17.02
32039;BMP280;18549;42.286;22.688;2024-02-23T13:28:39;95148.91;;;17.03
32039;BMP280;18549;42.286;22.688;2024-02-23T13:31:08;95146.75;;;17.08
32039;BMP280;18549;42.286;22.688;2024-02-23T13:33:35;95153.31;;;17.09
32039;BMP280;18549;42.286;22.688;2024-02-23T13:36:03;95154.25;;;17.08
32039;BMP280;18549;42.286;22.688;2024-02-23T13:38:30;95156.00;;;17.07
32039;BMP280;18549;42.286;22.688;2024-02-23T13:41:04;95146.44;;;17.11
32039;BMP280;18549;42.286;22.688;2024-02-23T13:43:34;95143.53;;;17.15
32039;BMP280;18549;42.286;22.688;2024-02-23T13:46:00;95146.81;;;17.16
32039;BMP280;18549;42.286;22.688;2024-02-23T13:48:30;95151.19;;;17.14
32039;BMP280;18549;42.286;22.688;2024-02-23T13:50:59;95149.62;;;17.13
32039;BMP280;18549;42.286;22.688;2024-02-23T13:53:30;95156.06;;;17.15
32039;BMP280;18549;42.286;22.688;2024-02-23T13:55:59;95158.69;;;17.14
32039;BMP280;18549;42.286;22.688;2024-02-23T13:58:30;95152.41;;;17.10
32039;BMP280;18549;42.286;22.688;2024-02-23T14:00:59;95155.69;;;17.10
32039;BMP280;18549;42.286;22.688;2024-02-23T14:03:29;95157.25;;;17.11
32039;BMP280;18549;42.286;22.688;2024-02-23T14:05:57;95160.69;;;17.10
32039;BMP280;18549;42.286;22.688;2024-02-23T14:08:25;95160.69;;;17.10
32039;BMP280;18549;42.286;22.688;2024-02-23T14:10:53;95169.94;;;17.10
32039;BMP280;18549;42.286;22.688;2024-02-23T14:13:21;95171.00;;;17.07
32039;BMP280;18549;42.286;22.688;2024-02-23T14:15:48;95175.03;;;17.00